createdAt,value
2019-03-03T00:01:13.602Z,16.67
2019-03-03T00:03:42.283Z,14.10
2019-03-03T00:06:13.681Z,13.57
2019-03-03T00:08:43.779Z,11.50
2019-03-03T00:11:13.797Z,15.27
2019-03-03T00:13:43.485Z,11.95
2019-03-03T00:16:13.615Z,19.23
2019-03-03T00:18:44.206Z,11.63
2019-03-03T00:21:13.649Z,20.17
2019-03-03T00:23:43.642Z,15.93
2019-03-03T00:26:12.377Z,13.73
2019-03-03T00:28:42.154Z,12.60
2019-03-03T00:31:10.657Z,12.13
2019-03-03T00:33:39.123Z,9.23
2019-03-03T00:36:07.641Z,12.50
2019-03-03T00:38:40.193Z,17.20
2019-03-03T00:41:20.795Z,10.87
2019-03-03T00:43:52.051Z,14.07
2019-03-03T00:46:27.379Z,15.67
2019-03-03T00:48:57.475Z,13.37
2019-03-03T00:51:43.592Z,9.73
2019-03-03T00:54:19.569Z,14.83
2019-03-03T00:56:51.215Z,17.93
2019-03-03T00:59:22.463Z,11.83
2019-03-03T01:01:54.091Z,8.77
2019-03-03T01:07:18.853Z,13.23
2019-03-03T01:09:57.589Z,14.87
2019-03-03T01:12:45.406Z,11.40
2019-03-03T01:15:19.615Z,12.57
2019-03-03T01:17:51.407Z,11.20
2019-03-03T01:20:35.165Z,14.57
2019-03-03T01:23:12.697Z,12.57
2019-03-03T01:25:41.239Z,10.57
2019-03-03T01:28:09.761Z,19.17
2019-03-03T01:30:39.932Z,11.43
2019-03-03T01:33:08.427Z,14.10
2019-03-03T01:35:36.917Z,11.23
2019-03-03T01:38:05.662Z,13.30
2019-03-03T01:40:36.904Z,11.23
2019-03-03T01:43:08.022Z,11.00
2019-03-03T01:45:40.210Z,15.30
2019-03-03T01:48:09.444Z,13.50
2019-03-03T01:50:37.946Z,13.83
2019-03-03T01:53:07.681Z,13.30
2019-03-03T01:55:38.624Z,13.77
2019-03-03T01:58:07.308Z,12.53
2019-03-03T02:00:36.114Z,15.03
2019-03-03T02:03:05.604Z,12.97
2019-03-03T02:05:34.094Z,18.55
2019-03-03T02:08:03.936Z,13.93
2019-03-03T02:10:36.074Z,14.00
2019-03-03T02:13:04.788Z,13.40
2019-03-03T02:15:33.284Z,14.43
2019-03-03T02:18:01.802Z,10.67
2019-03-03T02:20:30.352Z,12.40
2019-03-03T02:23:08.900Z,15.67
2019-03-03T02:25:39.010Z,11.15
2019-03-03T02:28:08.612Z,16.47
2019-03-03T02:30:37.211Z,18.93
2019-03-03T02:33:08.581Z,17.57
2019-03-03T02:35:37.258Z,15.63
2019-03-03T02:38:06.748Z,13.53
2019-03-03T02:40:35.236Z,12.87
2019-03-03T02:43:05.792Z,19.07
2019-03-03T02:45:35.888Z,20.55
2019-03-03T02:48:06.989Z,20.33
2019-03-03T02:50:37.864Z,17.17
2019-03-03T02:53:06.336Z,18.93
2019-03-03T02:55:34.815Z,22.17
2019-03-03T02:58:06.355Z,17.00
2019-03-03T03:00:37.610Z,19.83
2019-03-03T03:03:13.878Z,21.40
2019-03-03T03:05:48.325Z,15.33
2019-03-03T03:08:24.220Z,14.90
2019-03-03T03:10:57.188Z,17.17
2019-03-03T03:13:31.486Z,13.33
2019-03-03T03:16:06.548Z,16.13
2019-03-03T03:18:39.470Z,15.97
2019-03-03T03:21:31.878Z,21.30
2019-03-03T03:24:15.104Z,18.02
2019-03-03T03:26:55.235Z,22.13
2019-03-03T03:29:32.452Z,20.03
2019-03-03T03:32:07.055Z,21.53
2019-03-03T03:34:51.778Z,20.27
2019-03-03T03:37:27.591Z,18.20
2019-03-03T03:39:57.726Z,17.27
2019-03-03T03:42:45.883Z,16.87
2019-03-03T03:45:28.163Z,27.40
2019-03-03T03:48:04.276Z,19.30
2019-03-03T03:50:42.247Z,25.67
2019-03-03T03:53:15.545Z,25.83
2019-03-03T03:55:51.350Z,30.97
2019-03-03T03:58:24.460Z,27.57
2019-03-03T04:01:11.163Z,25.67
2019-03-03T04:03:42.096Z,20.77
2019-03-03T04:06:26.456Z,22.70
2019-03-03T04:09:01.664Z,21.17
2019-03-03T04:11:33.976Z,27.85
2019-03-03T04:14:24.672Z,20.70
2019-03-03T04:17:04.634Z,18.67
2019-03-03T04:19:37.498Z,28.17
2019-03-03T04:22:07.642Z,27.33
2019-03-03T04:24:55.662Z,35.97
2019-03-03T04:27:30.421Z,22.45
2019-03-03T04:30:01.743Z,25.97
2019-03-03T04:32:51.283Z,24.07
2019-03-03T04:35:21.573Z,30.90
2019-03-03T04:37:57.735Z,28.83
2019-03-03T04:40:28.076Z,25.72
2019-03-03T04:43:02.102Z,26.27
2019-03-03T04:45:38.213Z,27.93
2019-03-03T04:48:13.892Z,27.67
2019-03-03T04:50:45.724Z,25.70
2019-03-03T04:53:32.157Z,26.33
2019-03-03T04:56:14.414Z,24.13
2019-03-03T04:58:57.553Z,22.23
2019-03-03T05:01:33.774Z,28.63
2019-03-03T05:04:23.596Z,23.03
2019-03-03T05:06:59.820Z,29.60
2019-03-03T05:09:48.408Z,25.13
2019-03-03T05:12:28.441Z,25.33
2019-03-03T05:15:01.117Z,27.80
2019-03-03T05:17:48.171Z,25.63
2019-03-03T05:20:19.872Z,24.90
2019-03-03T05:22:52.694Z,29.10
2019-03-03T05:25:23.052Z,24.67
2019-03-03T05:27:58.244Z,32.73
2019-03-03T05:30:26.694Z,26.47
2019-03-03T05:32:58.202Z,28.07
2019-03-03T05:35:27.783Z,29.67
2019-03-03T05:37:57.585Z,31.73
2019-03-03T05:40:26.044Z,26.37
2019-03-03T05:42:54.752Z,23.32
2019-03-03T05:45:23.274Z,22.73
2019-03-03T05:47:54.590Z,27.00
2019-03-03T05:50:26.092Z,30.50
2019-03-03T05:52:54.571Z,29.97
2019-03-03T05:55:23.106Z,24.52
2019-03-03T05:57:51.606Z,30.13
2019-03-03T06:00:21.553Z,32.58
2019-03-03T06:02:52.732Z,23.03
2019-03-03T06:05:22.938Z,26.53
2019-03-03T06:07:51.431Z,23.67
2019-03-03T06:10:19.923Z,30.07
2019-03-03T06:12:50.279Z,24.60
2019-03-03T06:15:18.750Z,22.47
2019-03-03T06:17:51.543Z,29.37
2019-03-03T06:20:20.172Z,25.90
2019-03-03T06:22:48.676Z,33.07
2019-03-03T06:25:17.157Z,25.10
2019-03-03T06:27:46.183Z,28.47
2019-03-03T06:30:19.084Z,29.33
2019-03-03T06:32:47.703Z,26.93
2019-03-03T06:35:18.413Z,27.90
2019-03-03T06:37:46.964Z,30.93
2019-03-03T06:40:15.494Z,26.67
2019-03-03T06:42:44.191Z,29.50
2019-03-03T06:45:15.298Z,27.53
2019-03-03T06:47:45.701Z,21.33
2019-03-03T06:50:15.655Z,28.37
2019-03-03T06:52:48.957Z,30.12
2019-03-03T06:55:17.198Z,23.47
2019-03-03T06:57:46.589Z,21.70
2019-03-03T07:00:17.116Z,30.77
2019-03-03T07:02:47.607Z,31.80
2019-03-03T07:05:16.131Z,21.80
2019-03-03T07:07:47.470Z,30.70
2019-03-03T07:10:16.153Z,22.23
2019-03-03T07:12:46.059Z,26.43
2019-03-03T07:15:16.519Z,37.00
2019-03-03T07:17:45.060Z,27.23
2019-03-03T07:20:14.138Z,27.03
2019-03-03T07:22:45.349Z,27.80
2019-03-03T07:25:18.517Z,26.77
2019-03-03T07:27:47.077Z,34.63
2019-03-03T07:30:18.521Z,31.07
2019-03-03T07:35:32.524Z,31.33
2019-03-03T07:38:04.078Z,30.63
2019-03-03T07:40:34.666Z,35.00
2019-03-03T07:43:03.557Z,31.37
2019-03-03T07:45:33.514Z,35.13
2019-03-03T07:48:02.092Z,22.87
2019-03-03T07:50:30.559Z,29.70
2019-03-03T07:52:59.076Z,26.67
2019-03-03T07:55:29.291Z,30.43
2019-03-03T07:57:57.788Z,26.70
2019-03-03T08:00:32.397Z,24.05
2019-03-03T08:03:09.542Z,27.40
2019-03-03T08:05:38.252Z,28.03
2019-03-03T08:08:10.829Z,28.13
2019-03-03T08:10:39.323Z,26.50
2019-03-03T08:13:09.693Z,27.40
2019-03-03T08:15:38.511Z,22.67
2019-03-03T08:18:07.044Z,29.13
2019-03-03T08:20:35.506Z,21.10
2019-03-03T08:23:05.519Z,28.07
2019-03-03T08:25:36.734Z,20.53
2019-03-03T08:28:05.271Z,23.67
2019-03-03T08:30:38.321Z,30.97
2019-03-03T08:33:07.096Z,27.13
2019-03-03T08:35:35.616Z,23.87
2019-03-03T08:38:04.150Z,28.97
2019-03-03T08:40:34.374Z,26.33
2019-03-03T08:43:09.058Z,23.63
2019-03-03T08:45:45.126Z,31.43
2019-03-03T08:48:21.100Z,29.33
2019-03-03T08:50:54.496Z,24.87
2019-03-03T08:53:29.060Z,20.67
2019-03-03T08:59:10.623Z,27.63
2019-03-03T09:01:58.298Z,26.03
2019-03-03T09:04:54.488Z,26.97
2019-03-03T09:07:28.850Z,24.20
2019-03-03T09:10:06.168Z,27.50
2019-03-03T09:12:52.260Z,22.67
2019-03-03T09:15:31.278Z,22.70
2019-03-03T09:18:01.394Z,26.63
2019-03-03T09:21:07.234Z,23.87
2019-03-03T09:23:38.105Z,18.17
2019-03-03T09:26:16.992Z,17.63
2019-03-03T09:28:51.416Z,19.37
2019-03-03T09:31:32.034Z,21.57
2019-03-03T09:34:03.098Z,22.70
2019-03-03T09:36:45.498Z,28.37
2019-03-03T09:39:17.556Z,24.30
2019-03-03T09:42:10.576Z,19.57
2019-03-03T09:44:43.258Z,23.53
2019-03-03T09:47:13.430Z,21.50
2019-03-03T09:49:48.041Z,23.33
2019-03-03T09:52:21.087Z,22.00
2019-03-03T09:54:55.282Z,27.80
2019-03-03T09:57:41.641Z,23.30
2019-03-03T10:00:19.167Z,22.87
2019-03-03T10:03:10.156Z,24.20
2019-03-03T10:05:56.502Z,30.03
2019-03-03T10:08:37.061Z,24.70
2019-03-03T10:11:22.653Z,23.23
2019-03-03T10:13:53.159Z,19.00
2019-03-03T10:16:38.688Z,18.67
2019-03-03T10:19:25.714Z,17.50
2019-03-03T10:22:04.779Z,24.13
2019-03-03T10:24:47.162Z,20.77
2019-03-03T10:27:23.217Z,15.33
2019-03-03T10:29:55.438Z,17.07
2019-03-03T10:32:26.693Z,22.27
2019-03-03T10:34:59.547Z,17.43
2019-03-03T10:37:44.363Z,21.85
2019-03-03T10:40:32.265Z,23.47
2019-03-03T10:43:04.636Z,16.17
2019-03-03T10:45:37.741Z,18.53
2019-03-03T10:48:13.823Z,18.03
2019-03-03T10:50:44.032Z,19.40
2019-03-03T10:53:15.541Z,15.67
2019-03-03T10:55:47.193Z,16.40
2019-03-03T10:58:30.697Z,16.27
2019-03-03T11:01:20.155Z,15.80
2019-03-03T11:03:54.410Z,11.83
2019-03-03T11:06:30.301Z,12.82
2019-03-03T11:09:04.445Z,13.57
2019-03-03T11:11:49.029Z,10.15
2019-03-03T11:14:19.319Z,15.87
2019-03-03T11:16:53.541Z,14.03
2019-03-03T11:19:32.421Z,11.43
2019-03-03T11:22:22.781Z,14.90
2019-03-03T11:25:00.381Z,15.73
2019-03-03T11:27:48.194Z,13.70
2019-03-03T11:30:29.262Z,13.07
2019-03-03T11:33:11.742Z,13.77
2019-03-03T11:35:44.910Z,13.47
2019-03-03T11:38:32.975Z,16.43
2019-03-03T11:41:19.636Z,14.40
2019-03-03T11:43:52.419Z,14.77
2019-03-03T11:46:26.551Z,17.40
2019-03-03T11:49:11.639Z,19.80
2019-03-03T11:51:44.228Z,16.97
2019-03-03T11:54:17.119Z,17.97
2019-03-03T11:57:04.283Z,16.43
2019-03-03T11:59:49.529Z,15.37
2019-03-03T12:02:24.076Z,16.83
2019-03-03T12:05:10.694Z,22.30
2019-03-03T12:07:46.714Z,16.63
2019-03-03T12:10:22.766Z,22.43
2019-03-03T12:12:54.460Z,19.77
2019-03-03T12:15:33.852Z,20.17
2019-03-03T12:18:21.817Z,25.02
2019-03-03T12:20:57.857Z,24.98
2019-03-03T12:23:45.454Z,17.87
2019-03-03T12:26:16.882Z,20.90
2019-03-03T12:28:49.761Z,23.95
2019-03-03T12:31:37.556Z,21.87
2019-03-03T12:34:22.434Z,24.83
2019-03-03T12:36:54.208Z,20.17
2019-03-03T12:39:29.298Z,25.97
2019-03-03T12:42:11.308Z,28.23
2019-03-03T12:44:45.469Z,23.67
2019-03-03T12:47:15.588Z,24.87
2019-03-03T12:49:54.424Z,24.13
2019-03-03T12:52:40.858Z,26.00
2019-03-03T12:55:29.350Z,28.93
2019-03-03T12:58:05.107Z,29.85
2019-03-03T13:00:51.479Z,28.40
2019-03-03T13:03:27.806Z,31.63
2019-03-03T13:05:57.916Z,29.37
2019-03-03T13:08:28.070Z,28.13
2019-03-03T13:11:13.183Z,25.03
2019-03-03T13:13:46.276Z,31.00
2019-03-03T13:16:21.540Z,29.57
2019-03-03T13:18:54.388Z,31.80
2019-03-03T13:21:30.398Z,30.97
2019-03-03T13:24:06.608Z,32.23
2019-03-03T13:26:38.317Z,37.50
2019-03-03T13:29:27.615Z,25.77
2019-03-03T13:32:00.316Z,26.17
2019-03-03T13:34:36.600Z,27.48
2019-03-03T13:37:06.782Z,28.43
2019-03-03T13:39:50.520Z,22.77
2019-03-03T13:42:24.591Z,29.50
2019-03-03T13:44:53.188Z,28.40
2019-03-03T13:47:25.691Z,29.33
2019-03-03T13:49:57.357Z,30.20
2019-03-03T13:52:26.157Z,36.03
2019-03-03T13:54:54.666Z,29.00
2019-03-03T13:57:23.129Z,23.20
2019-03-03T13:59:51.768Z,26.17
2019-03-03T14:02:26.328Z,31.33
2019-03-03T14:04:55.130Z,26.23
2019-03-03T14:07:25.207Z,28.13
2019-03-03T14:09:53.719Z,27.87
2019-03-03T14:12:22.191Z,26.90
2019-03-03T14:14:50.657Z,21.10
2019-03-03T14:17:19.489Z,24.60
2019-03-03T14:19:50.284Z,23.02
2019-03-03T14:22:20.205Z,26.23
2019-03-03T14:24:51.897Z,27.73
2019-03-03T14:27:20.426Z,22.00
2019-03-03T14:29:49.044Z,21.77
2019-03-03T14:32:19.450Z,31.03
2019-03-03T14:34:49.314Z,19.93
2019-03-03T14:37:19.425Z,28.10
2019-03-03T14:39:48.115Z,25.77
2019-03-03T14:42:16.677Z,26.70
2019-03-03T14:44:46.631Z,23.83
2019-03-03T14:47:15.268Z,22.63
2019-03-03T14:49:44.397Z,21.30
2019-03-03T14:52:12.983Z,25.00
2019-03-03T14:54:43.197Z,24.73
2019-03-03T14:57:11.713Z,23.67
2019-03-03T14:59:41.765Z,27.20
2019-03-03T15:02:10.925Z,20.80
2019-03-03T15:04:40.935Z,20.75
2019-03-03T15:07:14.294Z,20.13
2019-03-03T15:09:44.569Z,15.83
2019-03-03T15:12:17.461Z,25.17
2019-03-03T15:14:47.860Z,23.37
2019-03-03T15:17:20.389Z,24.63
2019-03-03T15:19:49.172Z,18.83
2019-03-03T15:22:17.820Z,24.40
2019-03-03T15:24:49.080Z,21.68
2019-03-03T15:27:18.955Z,18.07
2019-03-03T15:29:48.723Z,23.87
2019-03-03T15:32:17.268Z,20.00
2019-03-03T15:34:45.801Z,15.78
2019-03-03T15:37:15.969Z,18.87
2019-03-03T15:39:44.642Z,21.00
2019-03-03T15:42:13.244Z,18.70
2019-03-03T15:44:41.908Z,14.73
2019-03-03T15:47:10.462Z,18.33
2019-03-03T15:49:42.192Z,19.93
2019-03-03T15:52:14.238Z,16.67
2019-03-03T15:54:42.774Z,18.63
2019-03-03T15:57:11.289Z,23.57
2019-03-03T15:59:39.755Z,21.80
2019-03-03T16:02:13.066Z,18.63
2019-03-03T16:04:44.635Z,17.93
2019-03-03T16:07:13.240Z,17.27
2019-03-03T16:09:43.116Z,18.33
2019-03-03T16:12:11.770Z,17.90
2019-03-03T16:14:42.917Z,18.20
2019-03-03T16:17:14.033Z,18.03
2019-03-03T16:19:44.028Z,16.43
2019-03-03T16:22:14.760Z,20.47
2019-03-03T16:24:45.733Z,21.00
2019-03-03T16:27:15.790Z,16.40
2019-03-03T16:29:44.246Z,18.97
2019-03-03T16:32:13.933Z,13.40
2019-03-03T16:34:45.502Z,18.82
2019-03-03T16:37:15.313Z,19.50
2019-03-03T16:39:43.841Z,16.63
2019-03-03T16:42:15.173Z,15.83
2019-03-03T16:44:43.961Z,15.47
2019-03-03T16:47:16.211Z,19.00
2019-03-03T16:49:49.116Z,19.43
2019-03-03T16:52:20.565Z,15.30
2019-03-03T16:54:50.343Z,17.87
2019-03-03T16:57:22.843Z,20.40
2019-03-03T16:59:49.315Z,17.15
2019-03-03T17:02:19.805Z,12.93
2019-03-03T17:04:48.289Z,16.73
2019-03-03T17:07:17.015Z,17.87
2019-03-03T17:09:45.612Z,20.20
2019-03-03T17:12:15.119Z,16.85
2019-03-03T17:14:43.811Z,20.03
2019-03-03T17:17:13.551Z,15.60
2019-03-03T17:19:42.209Z,14.73
2019-03-03T17:22:16.238Z,17.03
2019-03-03T17:24:51.803Z,17.90
2019-03-03T17:27:24.736Z,18.98
2019-03-03T17:29:56.215Z,17.10
2019-03-03T17:32:26.293Z,16.47
2019-03-03T17:34:56.478Z,17.27
2019-03-03T17:37:25.102Z,12.37
2019-03-03T17:39:54.822Z,19.23
2019-03-03T17:42:23.385Z,17.45
2019-03-03T17:44:51.875Z,20.23
2019-03-03T17:47:21.277Z,10.15
2019-03-03T17:49:50.870Z,20.40
2019-03-03T17:52:19.379Z,13.70
2019-03-03T17:54:52.295Z,17.33
2019-03-03T17:57:20.900Z,12.27
2019-03-03T17:59:51.246Z,17.27
2019-03-03T18:02:19.773Z,15.20
2019-03-03T18:04:50.985Z,16.43
2019-03-03T18:07:25.407Z,17.90
2019-03-03T18:09:53.495Z,14.87
2019-03-03T18:12:25.035Z,17.40
2019-03-03T18:14:56.448Z,12.03
2019-03-03T18:17:27.407Z,11.80
2019-03-03T18:20:01.918Z,18.03
2019-03-03T18:22:30.695Z,15.00
2019-03-03T18:25:00.757Z,12.40
2019-03-03T18:27:31.619Z,16.83
2019-03-03T18:30:00.176Z,16.10
2019-03-03T18:32:30.082Z,14.75
2019-03-03T18:34:58.546Z,13.00
2019-03-03T18:37:27.337Z,12.10
2019-03-03T18:39:55.947Z,13.23
2019-03-03T18:42:26.009Z,15.07
2019-03-03T18:44:55.393Z,18.03
2019-03-03T18:47:32.820Z,17.10
2019-03-03T18:50:04.638Z,13.83
2019-03-03T18:52:33.788Z,20.43
2019-03-03T18:55:02.490Z,13.60
2019-03-03T18:57:31.122Z,13.17
2019-03-03T19:00:00.554Z,11.80
2019-03-03T19:02:30.822Z,16.20
2019-03-03T19:05:00.848Z,17.43
2019-03-03T19:07:29.445Z,14.73
2019-03-03T19:10:15.328Z,17.43
2019-03-03T19:12:45.332Z,14.43
2019-03-03T19:15:27.600Z,13.80
2019-03-03T19:17:57.266Z,15.48
2019-03-03T19:20:25.807Z,13.97
2019-03-03T19:22:54.341Z,16.40
2019-03-03T19:25:22.955Z,11.50
2019-03-03T19:27:51.576Z,14.77
2019-03-03T19:30:27.278Z,13.65
2019-03-03T19:33:02.314Z,9.73
2019-03-03T19:35:35.202Z,12.80
2019-03-03T19:38:05.512Z,13.47
2019-03-03T19:40:34.394Z,13.10
2019-03-03T19:43:03.904Z,11.30
2019-03-03T19:45:40.985Z,7.77
2019-03-03T19:48:10.667Z,10.10
2019-03-03T19:50:44.509Z,11.13
2019-03-03T19:53:16.054Z,15.73
2019-03-03T19:55:48.268Z,13.07
2019-03-03T19:58:18.104Z,13.47
2019-03-03T20:00:49.326Z,16.33
2019-03-03T20:03:18.312Z,12.90
2019-03-03T20:05:46.798Z,10.87
2019-03-03T20:08:19.949Z,9.33
2019-03-03T20:10:48.532Z,10.27
2019-03-03T20:13:17.189Z,10.90
2019-03-03T20:15:47.188Z,14.67
2019-03-03T20:18:15.730Z,9.30
2019-03-03T20:20:47.198Z,13.20
2019-03-03T20:23:17.436Z,13.50
2019-03-03T20:25:46.173Z,13.23
2019-03-03T20:28:15.803Z,10.50
2019-03-03T20:30:45.335Z,12.23
2019-03-03T20:33:14.067Z,10.33
2019-03-03T20:35:42.960Z,10.57
2019-03-03T20:38:14.410Z,10.23
2019-03-03T20:40:42.942Z,17.17
2019-03-03T20:43:13.409Z,12.60
2019-03-03T20:45:42.077Z,11.33
2019-03-03T20:48:10.996Z,9.23
2019-03-03T20:50:41.674Z,12.00
2019-03-03T20:53:10.586Z,10.00
2019-03-03T20:55:42.618Z,9.10
2019-03-03T20:58:17.119Z,8.83
2019-03-03T21:00:48.071Z,11.83
2019-03-03T21:03:18.595Z,13.13
2019-03-03T21:05:50.312Z,11.43
2019-03-03T21:08:21.178Z,12.07
2019-03-03T21:10:49.724Z,10.87
2019-03-03T21:13:18.363Z,12.13
2019-03-03T21:16:09.360Z,12.43
2019-03-03T21:18:39.673Z,10.53
2019-03-03T21:21:08.813Z,11.67
2019-03-03T21:23:37.537Z,10.65
2019-03-03T21:26:06.043Z,10.83
2019-03-03T21:28:37.469Z,10.90
2019-03-03T21:31:05.641Z,11.50
2019-03-03T21:33:34.278Z,9.47
2019-03-03T21:36:06.192Z,8.73
2019-03-03T21:38:35.875Z,10.40
2019-03-03T21:41:04.606Z,9.50
2019-03-03T21:43:36.331Z,8.50
2019-03-03T21:46:04.832Z,8.55
2019-03-03T21:48:36.981Z,7.57
2019-03-03T21:51:05.560Z,12.13
2019-03-03T21:53:35.557Z,9.43
2019-03-03T21:56:11.199Z,10.50
2019-03-03T21:58:41.260Z,9.23
2019-03-03T22:01:09.872Z,8.57
2019-03-03T22:03:38.367Z,10.10
2019-03-03T22:06:11.136Z,12.57
2019-03-03T22:08:39.699Z,7.93
2019-03-03T22:11:09.859Z,9.97
2019-03-03T22:13:40.081Z,8.50
2019-03-03T22:16:08.681Z,9.50
2019-03-03T22:18:37.155Z,11.30
2019-03-03T22:21:05.707Z,9.00
2019-03-03T22:23:40.315Z,12.60
2019-03-03T22:26:08.774Z,6.23
2019-03-03T22:28:40.252Z,8.77
2019-03-03T22:31:09.745Z,10.13
2019-03-03T22:33:38.743Z,10.85
2019-03-03T22:36:13.126Z,7.33
2019-03-03T22:38:44.419Z,7.20
2019-03-03T22:41:13.101Z,11.57
2019-03-03T22:43:41.722Z,6.73
2019-03-03T22:46:13.288Z,7.47
2019-03-03T22:48:41.784Z,7.67
2019-03-03T22:51:10.404Z,6.87
2019-03-03T22:53:42.299Z,9.93
2019-03-03T22:56:20.485Z,7.83
2019-03-03T22:58:52.321Z,7.55
2019-03-03T23:01:21.988Z,11.87
2019-03-03T23:04:04.148Z,8.78
2019-03-03T23:07:04.795Z,9.13
2019-03-03T23:09:49.198Z,6.77
2019-03-03T23:12:47.032Z,8.73
2019-03-03T23:15:42.471Z,9.63
2019-03-03T23:18:25.942Z,7.77
2019-03-03T23:21:05.946Z,6.07
2019-03-03T23:23:53.842Z,10.07
2019-03-03T23:26:22.956Z,10.97
2019-03-03T23:28:55.767Z,5.77
2019-03-03T23:34:12.027Z,7.42
2019-03-03T23:36:42.054Z,7.53
2019-03-03T23:39:10.537Z,9.00
2019-03-03T23:41:39.079Z,7.53
2019-03-03T23:44:08.982Z,9.23
2019-03-03T23:46:40.483Z,8.55
2019-03-03T23:49:09.481Z,7.63
2019-03-03T23:51:39.923Z,6.90
2019-03-03T23:54:08.748Z,8.30
2019-03-03T23:56:39.225Z,8.43
